sensor_id;sensor_type;location;lat;lon;timestamp;P1;durP1;ratioP1;P2;durP2;ratioP2
44204;SDS011;30163;42.698;23.344;2023-04-08T00:00:58;53.22;;;27.58;;
44204;SDS011;30163;42.698;23.344;2023-04-08T00:03:23;58.78;;;27.52;;
44204;SDS011;30163;42.698;23.344;2023-04-08T00:05:48;55.23;;;28.30;;
44204;SDS011;30163;42.698;23.344;2023-04-08T00:08:13;52.37;;;26.37;;
44204;SDS011;30163;42.698;23.344;2023-04-08T00:10:39;51.90;;;26.75;;
44204;SDS011;30163;42.698;23.344;2023-04-08T00:13:04;53.78;;;28.50;;
44204;SDS011;30163;42.698;23.344;2023-04-08T00:15:30;56.80;;;28.35;;
44204;SDS011;30163;42.698;23.344;2023-04-08T00:17:55;49.63;;;28.63;;
44204;SDS011;30163;42.698;23.344;2023-04-08T00:20:21;52.60;;;28.85;;
44204;SDS011;30163;42.698;23.344;2023-04-08T00:22:47;64.70;;;30.00;;
44204;SDS011;30163;42.698;23.344;2023-04-08T00:25:12;56.93;;;30.43;;
44204;SDS011;30163;42.698;23.344;2023-04-08T00:27:37;60.27;;;29.50;;
44204;SDS011;30163;42.698;23.344;2023-04-08T00:30:02;59.37;;;31.33;;
44204;SDS011;30163;42.698;23.344;2023-04-08T00:32:28;59.83;;;32.92;;
44204;SDS011;30163;42.698;23.344;2023-04-08T00:34:53;59.33;;;31.08;;
44204;SDS011;30163;42.698;23.344;2023-04-08T00:37:19;67.05;;;33.38;;
44204;SDS011;30163;42.698;23.344;2023-04-08T00:39:45;77.78;;;36.40;;
44204;SDS011;30163;42.698;23.344;2023-04-08T00:42:10;65.88;;;36.25;;
44204;SDS011;30163;42.698;23.344;2023-04-08T00:44:35;61.87;;;34.30;;
44204;SDS011;30163;42.698;23.344;2023-04-08T00:47:02;65.43;;;34.88;;
44204;SDS011;30163;42.698;23.344;2023-04-08T00:49:27;70.15;;;35.65;;
44204;SDS011;30163;42.698;23.344;2023-04-08T00:51:53;62.30;;;34.07;;
44204;SDS011;30163;42.698;23.344;2023-04-08T00:54:18;69.82;;;35.97;;
44204;SDS011;30163;42.698;23.344;2023-04-08T00:56:43;66.53;;;35.75;;
44204;SDS011;30163;42.698;23.344;2023-04-08T00:59:09;75.53;;;39.05;;
44204;SDS011;30163;42.698;23.344;2023-04-08T01:06:48;76.05;;;39.75;;
44204;SDS011;30163;42.698;23.344;2023-04-08T01:09:15;68.07;;;38.88;;
44204;SDS011;30163;42.698;23.344;2023-04-08T01:11:42;78.40;;;40.20;;
44204;SDS011;30163;42.698;23.344;2023-04-08T01:14:08;80.57;;;40.42;;
44204;SDS011;30163;42.698;23.344;2023-04-08T01:16:36;75.57;;;40.30;;
44204;SDS011;30163;42.698;23.344;2023-04-08T01:19:02;85.20;;;43.17;;
44204;SDS011;30163;42.698;23.344;2023-04-08T01:21:29;94.47;;;43.33;;
44204;SDS011;30163;42.698;23.344;2023-04-08T01:24:12;81.15;;;41.72;;
44204;SDS011;30163;42.698;23.344;2023-04-08T01:26:40;91.65;;;45.35;;
44204;SDS011;30163;42.698;23.344;2023-04-08T01:29:06;91.50;;;42.85;;
44204;SDS011;30163;42.698;23.344;2023-04-08T01:31:32;89.30;;;43.15;;
44204;SDS011;30163;42.698;23.344;2023-04-08T01:34:00;91.53;;;44.63;;
44204;SDS011;30163;42.698;23.344;2023-04-08T01:36:26;83.68;;;43.53;;
44204;SDS011;30163;42.698;23.344;2023-04-08T01:38:52;82.97;;;41.60;;
44204;SDS011;30163;42.698;23.344;2023-04-08T01:41:18;84.43;;;42.65;;
44204;SDS011;30163;42.698;23.344;2023-04-08T01:43:43;88.57;;;45.13;;
44204;SDS011;30163;42.698;23.344;2023-04-08T01:46:10;96.00;;;45.05;;
44204;SDS011;30163;42.698;23.344;2023-04-08T01:48:36;88.85;;;43.90;;
44204;SDS011;30163;42.698;23.344;2023-04-08T01:51:02;94.55;;;45.03;;
44204;SDS011;30163;42.698;23.344;2023-04-08T01:53:28;87.18;;;45.35;;
44204;SDS011;30163;42.698;23.344;2023-04-08T01:55:57;88.80;;;42.10;;
44204;SDS011;30163;42.698;23.344;2023-04-08T01:58:25;82.20;;;40.20;;
44204;SDS011;30163;42.698;23.344;2023-04-08T02:00:53;88.20;;;42.13;;
44204;SDS011;30163;42.698;23.344;2023-04-08T02:03:20;79.38;;;40.90;;
44204;SDS011;30163;42.698;23.344;2023-04-08T02:05:47;80.45;;;39.60;;
44204;SDS011;30163;42.698;23.344;2023-04-08T02:08:12;63.88;;;32.33;;
44204;SDS011;30163;42.698;23.344;2023-04-08T02:10:38;69.03;;;35.63;;
44204;SDS011;30163;42.698;23.344;2023-04-08T02:13:03;70.13;;;37.70;;
44204;SDS011;30163;42.698;23.344;2023-04-08T02:15:28;76.63;;;38.25;;
44204;SDS011;30163;42.698;23.344;2023-04-08T02:17:59;74.57;;;38.50;;
44204;SDS011;30163;42.698;23.344;2023-04-08T02:20:31;79.05;;;37.38;;
44204;SDS011;30163;42.698;23.344;2023-04-08T02:23:00;84.53;;;41.85;;
44204;SDS011;30163;42.698;23.344;2023-04-08T02:25:27;71.75;;;36.95;;
44204;SDS011;30163;42.698;23.344;2023-04-08T02:27:54;79.57;;;39.72;;
44204;SDS011;30163;42.698;23.344;2023-04-08T02:30:20;83.63;;;39.33;;
44204;SDS011;30163;42.698;23.344;2023-04-08T02:32:46;73.32;;;36.40;;
44204;SDS011;30163;42.698;23.344;2023-04-08T02:35:12;69.53;;;37.63;;
44204;SDS011;30163;42.698;23.344;2023-04-08T02:37:38;70.80;;;35.80;;
44204;SDS011;30163;42.698;23.344;2023-04-08T02:40:03;67.73;;;34.30;;
44204;SDS011;30163;42.698;23.344;2023-04-08T02:42:29;65.47;;;31.95;;
44204;SDS011;30163;42.698;23.344;2023-04-08T02:44:55;61.83;;;33.97;;
44204;SDS011;30163;42.698;23.344;2023-04-08T02:47:20;70.53;;;34.78;;
44204;SDS011;30163;42.698;23.344;2023-04-08T02:49:46;64.82;;;35.60;;
44204;SDS011;30163;42.698;23.344;2023-04-08T02:52:11;70.80;;;34.70;;
44204;SDS011;30163;42.698;23.344;2023-04-08T02:54:36;65.80;;;33.57;;
44204;SDS011;30163;42.698;23.344;2023-04-08T02:57:02;64.00;;;35.80;;
44204;SDS011;30163;42.698;23.344;2023-04-08T02:59:27;60.17;;;35.20;;
44204;SDS011;30163;42.698;23.344;2023-04-08T03:01:52;66.87;;;35.80;;
44204;SDS011;30163;42.698;23.344;2023-04-08T03:04:17;68.10;;;35.03;;
44204;SDS011;30163;42.698;23.344;2023-04-08T03:06:42;68.45;;;38.60;;
44204;SDS011;30163;42.698;23.344;2023-04-08T03:09:08;62.13;;;34.50;;
44204;SDS011;30163;42.698;23.344;2023-04-08T03:11:33;59.65;;;34.90;;
44204;SDS011;30163;42.698;23.344;2023-04-08T03:13:59;67.30;;;38.00;;
44204;SDS011;30163;42.698;23.344;2023-04-08T03:16:24;70.15;;;36.45;;
44204;SDS011;30163;42.698;23.344;2023-04-08T03:18:49;65.75;;;37.53;;
44204;SDS011;30163;42.698;23.344;2023-04-08T03:21:18;62.80;;;35.60;;
44204;SDS011;30163;42.698;23.344;2023-04-08T03:23:43;78.03;;;37.58;;
44204;SDS011;30163;42.698;23.344;2023-04-08T03:26:08;72.90;;;36.83;;
44204;SDS011;30163;42.698;23.344;2023-04-08T03:28:34;64.73;;;36.87;;
44204;SDS011;30163;42.698;23.344;2023-04-08T03:30:59;66.55;;;35.42;;
44204;SDS011;30163;42.698;23.344;2023-04-08T03:33:27;71.63;;;37.13;;
44204;SDS011;30163;42.698;23.344;2023-04-08T03:35:53;73.20;;;39.07;;
44204;SDS011;30163;42.698;23.344;2023-04-08T03:38:18;76.68;;;37.78;;
44204;SDS011;30163;42.698;23.344;2023-04-08T03:40:43;71.13;;;38.45;;
44204;SDS011;30163;42.698;23.344;2023-04-08T03:43:08;67.20;;;36.23;;
44204;SDS011;30163;42.698;23.344;2023-04-08T03:45:35;69.35;;;37.00;;
44204;SDS011;30163;42.698;23.344;2023-04-08T03:48:01;71.47;;;37.05;;
44204;SDS011;30163;42.698;23.344;2023-04-08T03:50:26;69.47;;;38.20;;
44204;SDS011;30163;42.698;23.344;2023-04-08T03:52:51;75.80;;;37.53;;
44204;SDS011;30163;42.698;23.344;2023-04-08T03:55:16;68.70;;;35.63;;
44204;SDS011;30163;42.698;23.344;2023-04-08T03:57:42;73.65;;;34.83;;
44204;SDS011;30163;42.698;23.344;2023-04-08T04:00:08;66.75;;;38.80;;
44204;SDS011;30163;42.698;23.344;2023-04-08T04:02:33;74.88;;;38.83;;
44204;SDS011;30163;42.698;23.344;2023-04-08T04:04:58;88.77;;;38.80;;
44204;SDS011;30163;42.698;23.344;2023-04-08T04:07:24;97.78;;;39.65;;
44204;SDS011;30163;42.698;23.344;2023-04-08T04:09:49;70.55;;;39.00;;
44204;SDS011;30163;42.698;23.344;2023-04-08T04:12:18;73.47;;;39.13;;
44204;SDS011;30163;42.698;23.344;2023-04-08T04:14:43;71.17;;;39.47;;
44204;SDS011;30163;42.698;23.344;2023-04-08T04:17:08;77.40;;;40.17;;
44204;SDS011;30163;42.698;23.344;2023-04-08T04:19:33;70.60;;;37.90;;
44204;SDS011;30163;42.698;23.344;2023-04-08T04:21:59;78.00;;;38.20;;
44204;SDS011;30163;42.698;23.344;2023-04-08T04:24:24;71.20;;;36.50;;
44204;SDS011;30163;42.698;23.344;2023-04-08T04:26:49;69.45;;;37.80;;
44204;SDS011;30163;42.698;23.344;2023-04-08T04:29:14;77.63;;;37.77;;
44204;SDS011;30163;42.698;23.344;2023-04-08T04:31:40;67.07;;;36.67;;
44204;SDS011;30163;42.698;23.344;2023-04-08T04:34:06;73.00;;;36.47;;
44204;SDS011;30163;42.698;23.344;2023-04-08T04:36:31;82.95;;;37.75;;
44204;SDS011;30163;42.698;23.344;2023-04-08T04:38:56;88.43;;;36.22;;
44204;SDS011;30163;42.698;23.344;2023-04-08T04:41:22;85.00;;;38.80;;
44204;SDS011;30163;42.698;23.344;2023-04-08T04:43:47;73.43;;;38.10;;
44204;SDS011;30163;42.698;23.344;2023-04-08T04:46:12;82.00;;;35.40;;
44204;SDS011;30163;42.698;23.344;2023-04-08T04:48:37;78.03;;;35.67;;
44204;SDS011;30163;42.698;23.344;2023-04-08T04:51:03;76.33;;;31.27;;
44204;SDS011;30163;42.698;23.344;2023-04-08T04:53:29;47.13;;;26.50;;
44204;SDS011;30163;42.698;23.344;2023-04-08T04:55:54;53.17;;;28.27;;
44204;SDS011;30163;42.698;23.344;2023-04-08T04:58:20;57.40;;;28.25;;
44204;SDS011;30163;42.698;23.344;2023-04-08T05:00:45;54.22;;;29.25;;
44204;SDS011;30163;42.698;23.344;2023-04-08T05:03:11;50.05;;;27.63;;
44204;SDS011;30163;42.698;23.344;2023-04-08T05:05:36;52.47;;;27.15;;
44204;SDS011;30163;42.698;23.344;2023-04-08T05:08:01;55.83;;;26.35;;
44204;SDS011;30163;42.698;23.344;2023-04-08T05:10:26;52.75;;;27.02;;
44204;SDS011;30163;42.698;23.344;2023-04-08T05:12:52;51.43;;;27.80;;
44204;SDS011;30163;42.698;23.344;2023-04-08T05:15:17;58.17;;;27.67;;
44204;SDS011;30163;42.698;23.344;2023-04-08T05:17:42;59.75;;;29.58;;
44204;SDS011;30163;42.698;23.344;2023-04-08T05:20:07;52.77;;;28.87;;
44204;SDS011;30163;42.698;23.344;2023-04-08T05:22:33;50.25;;;27.27;;
44204;SDS011;30163;42.698;23.344;2023-04-08T05:24:58;56.38;;;26.95;;
44204;SDS011;30163;42.698;23.344;2023-04-08T05:27:24;46.08;;;27.20;;
44204;SDS011;30163;42.698;23.344;2023-04-08T05:29:49;66.80;;;28.73;;
44204;SDS011;30163;42.698;23.344;2023-04-08T05:32:15;56.55;;;30.40;;
44204;SDS011;30163;42.698;23.344;2023-04-08T05:34:41;59.88;;;30.38;;
44204;SDS011;30163;42.698;23.344;2023-04-08T05:37:06;44.08;;;25.85;;
44204;SDS011;30163;42.698;23.344;2023-04-08T05:39:31;50.03;;;24.87;;
44204;SDS011;30163;42.698;23.344;2023-04-08T05:41:56;33.38;;;20.50;;
44204;SDS011;30163;42.698;23.344;2023-04-08T05:44:22;51.33;;;24.63;;
44204;SDS011;30163;42.698;23.344;2023-04-08T05:46:47;42.57;;;20.23;;
44204;SDS011;30163;42.698;23.344;2023-04-08T05:49:12;40.97;;;23.00;;
44204;SDS011;30163;42.698;23.344;2023-04-08T05:51:38;38.45;;;21.95;;
44204;SDS011;30163;42.698;23.344;2023-04-08T05:54:03;42.35;;;21.50;;
44204;SDS011;30163;42.698;23.344;2023-04-08T05:56:28;43.60;;;21.15;;
44204;SDS011;30163;42.698;23.344;2023-04-08T05:58:56;39.55;;;21.83;;
44204;SDS011;30163;42.698;23.344;2023-04-08T06:01:21;45.23;;;23.83;;
44204;SDS011;30163;42.698;23.344;2023-04-08T06:03:46;40.45;;;21.13;;
44204;SDS011;30163;42.698;23.344;2023-04-08T06:06:11;37.83;;;23.27;;
44204;SDS011;30163;42.698;23.344;2023-04-08T06:08:37;34.63;;;21.27;;
44204;SDS011;30163;42.698;23.344;2023-04-08T06:11:02;40.47;;;21.43;;
44204;SDS011;30163;42.698;23.344;2023-04-08T06:13:30;42.45;;;23.92;;
44204;SDS011;30163;42.698;23.344;2023-04-08T06:15:56;39.47;;;21.77;;
44204;SDS011;30163;42.698;23.344;2023-04-08T06:18:21;41.70;;;22.85;;
44204;SDS011;30163;42.698;23.344;2023-04-08T06:20:46;45.72;;;24.60;;
44204;SDS011;30163;42.698;23.344;2023-04-08T06:23:12;50.33;;;24.70;;
44204;SDS011;30163;42.698;23.344;2023-04-08T06:25:37;44.83;;;23.08;;
44204;SDS011;30163;42.698;23.344;2023-04-08T06:28:02;45.60;;;23.80;;
44204;SDS011;30163;42.698;23.344;2023-04-08T06:30:28;45.63;;;26.00;;
44204;SDS011;30163;42.698;23.344;2023-04-08T06:32:53;44.03;;;24.53;;
44204;SDS011;30163;42.698;23.344;2023-04-08T06:35:18;46.40;;;25.85;;
44204;SDS011;30163;42.698;23.344;2023-04-08T06:37:44;96.78;;;27.90;;
44204;SDS011;30163;42.698;23.344;2023-04-08T06:40:09;53.50;;;25.35;;
44204;SDS011;30163;42.698;23.344;2023-04-08T06:42:35;43.38;;;23.23;;
44204;SDS011;30163;42.698;23.344;2023-04-08T06:45:02;41.80;;;23.58;;
44204;SDS011;30163;42.698;23.344;2023-04-08T06:47:28;54.65;;;25.95;;
44204;SDS011;30163;42.698;23.344;2023-04-08T06:49:53;41.20;;;24.80;;
44204;SDS011;30163;42.698;23.344;2023-04-08T06:52:18;58.10;;;26.60;;
44204;SDS011;30163;42.698;23.344;2023-04-08T06:54:43;50.77;;;28.10;;
44204;SDS011;30163;42.698;23.344;2023-04-08T06:57:09;57.33;;;26.90;;
44204;SDS011;30163;42.698;23.344;2023-04-08T06:59:34;49.22;;;28.58;;
44204;SDS011;30163;42.698;23.344;2023-04-08T07:01:59;56.23;;;27.97;;
44204;SDS011;30163;42.698;23.344;2023-04-08T07:04:25;59.95;;;29.45;;
44204;SDS011;30163;42.698;23.344;2023-04-08T07:06:50;58.80;;;28.10;;
44204;SDS011;30163;42.698;23.344;2023-04-08T07:09:16;52.88;;;28.95;;
44204;SDS011;30163;42.698;23.344;2023-04-08T07:11:41;45.58;;;27.50;;
44204;SDS011;30163;42.698;23.344;2023-04-08T07:14:06;45.95;;;26.77;;
44204;SDS011;30163;42.698;23.344;2023-04-08T07:16:32;50.77;;;27.70;;
44204;SDS011;30163;42.698;23.344;2023-04-08T07:18:57;38.80;;;23.83;;
44204;SDS011;30163;42.698;23.344;2023-04-08T07:21:22;33.40;;;19.98;;
44204;SDS011;30163;42.698;23.344;2023-04-08T07:23:48;38.83;;;22.88;;
44204;SDS011;30163;42.698;23.344;2023-04-08T07:26:13;41.87;;;22.80;;
44204;SDS011;30163;42.698;23.344;2023-04-08T07:28:38;38.15;;;23.02;;
44204;SDS011;30163;42.698;23.344;2023-04-08T07:31:16;36.13;;;21.33;;
44204;SDS011;30163;42.698;23.344;2023-04-08T07:33:42;43.80;;;22.15;;
44204;SDS011;30163;42.698;23.344;2023-04-08T07:36:08;38.90;;;22.67;;
44204;SDS011;30163;42.698;23.344;2023-04-08T07:38:33;34.83;;;20.85;;
44204;SDS011;30163;42.698;23.344;2023-04-08T07:40:58;38.78;;;21.67;;
44204;SDS011;30163;42.698;23.344;2023-04-08T07:43:24;31.42;;;19.90;;
44204;SDS011;30163;42.698;23.344;2023-04-08T07:45:49;35.63;;;20.80;;
44204;SDS011;30163;42.698;23.344;2023-04-08T07:48:15;35.88;;;20.70;;
44204;SDS011;30163;42.698;23.344;2023-04-08T07:50:40;34.60;;;19.13;;
44204;SDS011;30163;42.698;23.344;2023-04-08T07:53:05;32.88;;;19.17;;
44204;SDS011;30163;42.698;23.344;2023-04-08T07:55:34;37.70;;;21.83;;
44204;SDS011;30163;42.698;23.344;2023-04-08T07:57:59;34.28;;;19.70;;
44204;SDS011;30163;42.698;23.344;2023-04-08T08:00:25;31.08;;;18.70;;
44204;SDS011;30163;42.698;23.344;2023-04-08T08:02:50;32.78;;;20.33;;
44204;SDS011;30163;42.698;23.344;2023-04-08T08:05:16;32.80;;;19.67;;
44204;SDS011;30163;42.698;23.344;2023-04-08T08:07:41;35.33;;;19.98;;
44204;SDS011;30163;42.698;23.344;2023-04-08T08:10:07;37.45;;;21.92;;
44204;SDS011;30163;42.698;23.344;2023-04-08T08:12:32;36.38;;;20.05;;
44204;SDS011;30163;42.698;23.344;2023-04-08T08:14:57;43.13;;;19.83;;
44204;SDS011;30163;42.698;23.344;2023-04-08T08:17:23;38.45;;;20.88;;
44204;SDS011;30163;42.698;23.344;2023-04-08T08:19:48;42.45;;;20.23;;
44204;SDS011;30163;42.698;23.344;2023-04-08T08:22:14;38.63;;;20.35;;
44204;SDS011;30163;42.698;23.344;2023-04-08T08:24:40;34.60;;;19.13;;
44204;SDS011;30163;42.698;23.344;2023-04-08T08:27:05;35.92;;;20.63;;
44204;SDS011;30163;42.698;23.344;2023-04-08T08:29:30;41.67;;;22.92;;
44204;SDS011;30163;42.698;23.344;2023-04-08T08:31:56;34.47;;;21.25;;
44204;SDS011;30163;42.698;23.344;2023-04-08T08:34:21;38.83;;;20.35;;
44204;SDS011;30163;42.698;23.344;2023-04-08T08:36:47;36.70;;;20.15;;
44204;SDS011;30163;42.698;23.344;2023-04-08T08:39:12;43.00;;;22.03;;
44204;SDS011;30163;42.698;23.344;2023-04-08T08:41:37;36.67;;;22.90;;
44204;SDS011;30163;42.698;23.344;2023-04-08T08:44:06;35.07;;;21.73;;
44204;SDS011;30163;42.698;23.344;2023-04-08T08:46:32;40.08;;;22.80;;
44204;SDS011;30163;42.698;23.344;2023-04-08T08:48:57;40.30;;;21.85;;
44204;SDS011;30163;42.698;23.344;2023-04-08T08:51:22;33.40;;;20.55;;
44204;SDS011;30163;42.698;23.344;2023-04-08T08:53:48;41.03;;;21.98;;
44204;SDS011;30163;42.698;23.344;2023-04-08T08:56:13;49.53;;;22.80;;
44204;SDS011;30163;42.698;23.344;2023-04-08T08:58:38;41.50;;;22.65;;
44204;SDS011;30163;42.698;23.344;2023-04-08T09:01:28;41.13;;;23.30;;
44204;SDS011;30163;42.698;23.344;2023-04-08T09:04:01;37.83;;;22.45;;
44204;SDS011;30163;42.698;23.344;2023-04-08T09:06:30;41.75;;;23.63;;
44204;SDS011;30163;42.698;23.344;2023-04-08T09:08:55;39.90;;;22.98;;
44204;SDS011;30163;42.698;23.344;2023-04-08T09:11:20;44.70;;;23.87;;
44204;SDS011;30163;42.698;23.344;2023-04-08T09:13:46;48.92;;;24.27;;
44204;SDS011;30163;42.698;23.344;2023-04-08T09:16:15;47.50;;;23.08;;
44204;SDS011;30163;42.698;23.344;2023-04-08T09:18:42;40.78;;;23.10;;
44204;SDS011;30163;42.698;23.344;2023-04-08T09:21:08;39.58;;;22.55;;
44204;SDS011;30163;42.698;23.344;2023-04-08T09:23:41;36.30;;;23.02;;
44204;SDS011;30163;42.698;23.344;2023-04-08T09:26:08;41.88;;;22.48;;
44204;SDS011;30163;42.698;23.344;2023-04-08T09:28:33;31.73;;;20.27;;
44204;SDS011;30163;42.698;23.344;2023-04-08T09:30:58;44.63;;;21.60;;
44204;SDS011;30163;42.698;23.344;2023-04-08T09:33:33;40.63;;;21.80;;
44204;SDS011;30163;42.698;23.344;2023-04-08T09:35:58;40.78;;;21.48;;
44204;SDS011;30163;42.698;23.344;2023-04-08T09:38:23;40.55;;;21.88;;
44204;SDS011;30163;42.698;23.344;2023-04-08T09:40:49;34.53;;;20.37;;
44204;SDS011;30163;42.698;23.344;2023-04-08T09:43:14;38.80;;;20.70;;
44204;SDS011;30163;42.698;23.344;2023-04-08T09:45:46;44.45;;;22.65;;
44204;SDS011;30163;42.698;23.344;2023-04-08T09:48:13;38.58;;;21.50;;
44204;SDS011;30163;42.698;23.344;2023-04-08T09:50:48;43.85;;;22.33;;
44204;SDS011;30163;42.698;23.344;2023-04-08T09:53:47;35.83;;;20.67;;
44204;SDS011;30163;42.698;23.344;2023-04-08T09:56:09;41.60;;;20.83;;
44204;SDS011;30163;42.698;23.344;2023-04-08T09:58:50;36.53;;;19.10;;
44204;SDS011;30163;42.698;23.344;2023-04-08T10:01:16;35.35;;;20.08;;
44204;SDS011;30163;42.698;23.344;2023-04-08T10:03:51;40.95;;;22.38;;
44204;SDS011;30163;42.698;23.344;2023-04-08T10:06:17;37.30;;;22.20;;
44204;SDS011;30163;42.698;23.344;2023-04-08T10:08:45;46.50;;;22.38;;
44204;SDS011;30163;42.698;23.344;2023-04-08T10:11:11;36.28;;;19.65;;
44204;SDS011;30163;42.698;23.344;2023-04-08T10:13:38;58.28;;;22.00;;
44204;SDS011;30163;42.698;23.344;2023-04-08T10:18:46;38.50;;;20.83;;
44204;SDS011;30163;42.698;23.344;2023-04-08T10:23:56;35.30;;;19.00;;
44204;SDS011;30163;42.698;23.344;2023-04-08T10:26:42;33.28;;;18.85;;
44204;SDS011;30163;42.698;23.344;2023-04-08T10:31:45;38.80;;;18.90;;
44204;SDS011;30163;42.698;23.344;2023-04-08T10:34:21;32.58;;;19.65;;
44204;SDS011;30163;42.698;23.344;2023-04-08T10:36:50;46.17;;;20.02;;
44204;SDS011;30163;42.698;23.344;2023-04-08T10:39:15;31.42;;;17.27;;
44204;SDS011;30163;42.698;23.344;2023-04-08T10:41:41;30.23;;;18.10;;
44204;SDS011;30163;42.698;23.344;2023-04-08T10:46:42;40.63;;;21.38;;
44204;SDS011;30163;42.698;23.344;2023-04-08T10:49:07;38.22;;;20.05;;
44204;SDS011;30163;42.698;23.344;2023-04-08T10:51:32;42.55;;;21.63;;
44204;SDS011;30163;42.698;23.344;2023-04-08T10:54:06;34.63;;;19.58;;
44204;SDS011;30163;42.698;23.344;2023-04-08T10:56:31;38.45;;;18.85;;
44204;SDS011;30163;42.698;23.344;2023-04-08T10:58:57;36.42;;;19.20;;
44204;SDS011;30163;42.698;23.344;2023-04-08T11:01:23;28.70;;;17.50;;
44204;SDS011;30163;42.698;23.344;2023-04-08T11:03:48;32.70;;;18.23;;
44204;SDS011;30163;42.698;23.344;2023-04-08T11:06:14;36.95;;;19.50;;
44204;SDS011;30163;42.698;23.344;2023-04-08T11:08:39;35.78;;;18.92;;
44204;SDS011;30163;42.698;23.344;2023-04-08T11:11:05;35.78;;;20.33;;
44204;SDS011;30163;42.698;23.344;2023-04-08T11:13:35;33.33;;;18.90;;
44204;SDS011;30163;42.698;23.344;2023-04-08T11:16:01;37.67;;;20.85;;
44204;SDS011;30163;42.698;23.344;2023-04-08T11:18:28;38.72;;;20.50;;
44204;SDS011;30163;42.698;23.344;2023-04-08T11:20:54;36.53;;;20.38;;
44204;SDS011;30163;42.698;23.344;2023-04-08T11:23:20;32.10;;;18.90;;
44204;SDS011;30163;42.698;23.344;2023-04-08T11:25:46;37.50;;;20.45;;
44204;SDS011;30163;42.698;23.344;2023-04-08T11:28:12;36.13;;;19.30;;
44204;SDS011;30163;42.698;23.344;2023-04-08T11:30:38;31.13;;;18.23;;
44204;SDS011;30163;42.698;23.344;2023-04-08T11:33:04;39.80;;;18.20;;
44204;SDS011;30163;42.698;23.344;2023-04-08T11:35:30;28.92;;;15.60;;
44204;SDS011;30163;42.698;23.344;2023-04-08T11:37:55;22.88;;;13.50;;
44204;SDS011;30163;42.698;23.344;2023-04-08T11:40:21;27.73;;;15.25;;
44204;SDS011;30163;42.698;23.344;2023-04-08T11:42:46;23.75;;;14.00;;
44204;SDS011;30163;42.698;23.344;2023-04-08T11:45:12;22.15;;;14.05;;
44204;SDS011;30163;42.698;23.344;2023-04-08T11:47:37;27.60;;;14.85;;
44204;SDS011;30163;42.698;23.344;2023-04-08T11:50:03;24.38;;;14.43;;
44204;SDS011;30163;42.698;23.344;2023-04-08T11:52:41;25.70;;;13.65;;
44204;SDS011;30163;42.698;23.344;2023-04-08T11:55:08;29.60;;;14.88;;
44204;SDS011;30163;42.698;23.344;2023-04-08T11:57:33;25.02;;;15.23;;
44204;SDS011;30163;42.698;23.344;2023-04-08T12:00:00;25.55;;;15.90;;
44204;SDS011;30163;42.698;23.344;2023-04-08T12:02:25;25.33;;;13.75;;
44204;SDS011;30163;42.698;23.344;2023-04-08T12:04:50;19.15;;;11.80;;
44204;SDS011;30163;42.698;23.344;2023-04-08T12:07:16;21.58;;;13.55;;
44204;SDS011;30163;42.698;23.344;2023-04-08T12:09:41;23.50;;;13.60;;
44204;SDS011;30163;42.698;23.344;2023-04-08T12:12:07;20.43;;;13.60;;
44204;SDS011;30163;42.698;23.344;2023-04-08T12:14:32;23.75;;;13.23;;
44204;SDS011;30163;42.698;23.344;2023-04-08T12:16:57;29.07;;;14.97;;
44204;SDS011;30163;42.698;23.344;2023-04-08T12:19:22;21.37;;;12.67;;
44204;SDS011;30163;42.698;23.344;2023-04-08T12:21:48;26.65;;;13.57;;
44204;SDS011;30163;42.698;23.344;2023-04-08T12:24:13;22.57;;;12.97;;
44204;SDS011;30163;42.698;23.344;2023-04-08T12:26:38;21.60;;;12.70;;
44204;SDS011;30163;42.698;23.344;2023-04-08T12:29:03;21.47;;;11.93;;
44204;SDS011;30163;42.698;23.344;2023-04-08T12:31:29;18.08;;;11.73;;
44204;SDS011;30163;42.698;23.344;2023-04-08T12:33:54;22.45;;;12.52;;
44204;SDS011;30163;42.698;23.344;2023-04-08T12:36:19;19.13;;;11.38;;
44204;SDS011;30163;42.698;23.344;2023-04-08T12:38:45;21.23;;;12.15;;
44204;SDS011;30163;42.698;23.344;2023-04-08T12:41:10;19.23;;;12.77;;
44204;SDS011;30163;42.698;23.344;2023-04-08T12:43:35;19.83;;;12.37;;
44204;SDS011;30163;42.698;23.344;2023-04-08T12:46:01;20.58;;;12.95;;
44204;SDS011;30163;42.698;23.344;2023-04-08T12:48:27;22.02;;;12.25;;
44204;SDS011;30163;42.698;23.344;2023-04-08T12:50:52;21.90;;;12.73;;
44204;SDS011;30163;42.698;23.344;2023-04-08T12:53:17;16.97;;;11.97;;
44204;SDS011;30163;42.698;23.344;2023-04-08T12:55:43;20.08;;;13.13;;
44204;SDS011;30163;42.698;23.344;2023-04-08T12:58:08;18.67;;;12.23;;
44204;SDS011;30163;42.698;23.344;2023-04-08T13:00:33;21.45;;;13.13;;
44204;SDS011;30163;42.698;23.344;2023-04-08T13:03:01;22.77;;;12.95;;
44204;SDS011;30163;42.698;23.344;2023-04-08T13:05:27;19.23;;;12.93;;
44204;SDS011;30163;42.698;23.344;2023-04-08T13:07:52;21.35;;;12.65;;
44204;SDS011;30163;42.698;23.344;2023-04-08T13:10:17;22.13;;;11.10;;
44204;SDS011;30163;42.698;23.344;2023-04-08T13:12:43;23.60;;;12.25;;
44204;SDS011;30163;42.698;23.344;2023-04-08T13:15:08;15.50;;;10.98;;
44204;SDS011;30163;42.698;23.344;2023-04-08T13:17:34;19.02;;;11.73;;
44204;SDS011;30163;42.698;23.344;2023-04-08T13:19:59;17.67;;;11.88;;
44204;SDS011;30163;42.698;23.344;2023-04-08T13:22:25;23.02;;;12.77;;
44204;SDS011;30163;42.698;23.344;2023-04-08T13:24:50;18.30;;;11.47;;
44204;SDS011;30163;42.698;23.344;2023-04-08T13:27:16;23.10;;;13.13;;
44204;SDS011;30163;42.698;23.344;2023-04-08T13:29:41;26.45;;;17.20;;
44204;SDS011;30163;42.698;23.344;2023-04-08T13:32:06;19.58;;;11.63;;
44204;SDS011;30163;42.698;23.344;2023-04-08T13:34:32;17.47;;;12.40;;
44204;SDS011;30163;42.698;23.344;2023-04-08T13:36:57;18.47;;;12.20;;
44204;SDS011;30163;42.698;23.344;2023-04-08T13:39:23;18.35;;;11.43;;
44204;SDS011;30163;42.698;23.344;2023-04-08T13:41:48;21.73;;;11.80;;
44204;SDS011;30163;42.698;23.344;2023-04-08T13:44:13;17.77;;;10.63;;
44204;SDS011;30163;42.698;23.344;2023-04-08T13:46:39;23.73;;;12.77;;
44204;SDS011;30163;42.698;23.344;2023-04-08T13:49:04;21.33;;;12.52;;
44204;SDS011;30163;42.698;23.344;2023-04-08T13:51:30;15.27;;;10.38;;
44204;SDS011;30163;42.698;23.344;2023-04-08T13:53:55;19.83;;;12.70;;
44204;SDS011;30163;42.698;23.344;2023-04-08T13:56:21;20.77;;;13.25;;
44204;SDS011;30163;42.698;23.344;2023-04-08T13:58:46;16.60;;;12.40;;
44204;SDS011;30163;42.698;23.344;2023-04-08T14:01:11;19.27;;;12.60;;
44204;SDS011;30163;42.698;23.344;2023-04-08T14:03:37;22.10;;;11.35;;
44204;SDS011;30163;42.698;23.344;2023-04-08T14:06:02;18.75;;;11.68;;
44204;SDS011;30163;42.698;23.344;2023-04-08T14:08:27;16.52;;;10.55;;
44204;SDS011;30163;42.698;23.344;2023-04-08T14:10:55;18.63;;;11.63;;
44204;SDS011;30163;42.698;23.344;2023-04-08T14:13:21;16.73;;;11.93;;
44204;SDS011;30163;42.698;23.344;2023-04-08T14:15:46;18.85;;;11.43;;
44204;SDS011;30163;42.698;23.344;2023-04-08T14:18:13;20.02;;;12.27;;